Meteo Giornale » Osservazioni meteo Colombia » Cali-Alfonso Bonillaaragon
ore: 18:00 - Osservazioni Meteo Cali-Alfonso Bonillaaragon
Lat. 3° 33' N Lon. 76° 23' W Alt. 961 metri s.l.m.
29 °C
Nuvoloso
Temp. 24 Ore
19 °C
33 °C
Nord-Ovest
22.2 Km/h
Dew point 18 °C
Umidità 51 %
Visibilità 10 Km
Il sole sorge alle ore 06:00
Il sole tramonta alle ore 18:10
| Data e Ora | Cielo e Fenomeni | T °C | DP °C | Um. % | Pres. hPa | Vis. km | Vento km/h | |
|---|---|---|---|---|---|---|---|---|
| Oggi h: 18:00 | Nuvoloso | 29 | 18 | 51 | 1012 | 10 | NO 22.2 | |
| Oggi h: 17:00 | Poco Nuvoloso | 31 | 18 | 45 | 1012 | 10 | NO 24 | |
| Oggi h: 16:00 | Sereno | 33 | 18 | 41 | 1012 | 10 | N/NO 24 | |
| Oggi h: 15:00 | Nuvoloso | 33 | 18 | 41 | 1013 | 10 | NO 16.7 | |
| Oggi h: 14:00 | Sereno | 32 | 18 | 43 | 1013 | 10 | N 5.5 | |
| Oggi h: 13:41 | Nuvoloso | 31 | 18 | 45 | 1013 | 10 | N 5.5 | |
| Oggi h: 13:00 | Nuvoloso | 31 | 18 | 45 | 1015 | 10 | N 5.5 | |
| Oggi h: 12:00 | Molto Nuvoloso | 30 | 19 | 51 | 1016 | 10 | E 7.4 | |
| Oggi h: 11:00 | Sereno | 29 | 20 | 58 | 1017 | 10 | N 5.5 | |
| Oggi h: 10:00 | Nuvoloso | 27 | 20 | 65 | 1018 | 10 | NE 7.4 | |
| Oggi h: 09:00 | Nuvoloso | 25 | 20 | 73 | 1018 | 10 | N 1.8 | |
| Oggi h: 08:00 | Nuvoloso | 23 | 20 | 83 | 1018 | 9 | N 5.5 | |
| Oggi h: 07:00 | Molto Nuvoloso | 20 | 18 | 88 | 1017 | 8 | N 5.5 | |
| Oggi h: 06:00 | Nuvoloso | 19 | 17 | 88 | 1017 | 10 | N 3.7 | |
| Oggi h: 05:00 | Nuvoloso | 20 | 18 | 88 | 1016 | 10 | N 3.7 | |
| Oggi h: 04:00 | Nuvoloso | 21 | 18 | 82 | 1016 | 10 | N 5.5 | |
| Oggi h: 03:00 | Nuvoloso | 20 | 18 | 88 | 1016 | 10 | N 5.5 | |
| Oggi h: 02:00 | Poco Nuvoloso | 21 | 18 | 82 | 1017 | 10 | NE 7.4 | |
| Oggi h: 01:00 | Nuvoloso | 21 | 17 | 77 | 1017 | 10 | N 5.5 | |
| Oggi h: 00:00 | Poco Nuvoloso | 22 | 17 | 73 | 1017 | 10 | N 11.1 | |
| Ieri h: 23:00 | Nuvoloso | 23 | 17 | 68 | 1017 | 10 | N 13 | |
| Ieri h: 22:00 | Nuvoloso | 24 | 18 | 69 | 1017 | 10 | N 18.5 | |
| Ieri h: 21:00 | Nuvoloso | 24 | 18 | 69 | 1016 | 10 | N/NO 20.3 | |
| Ieri h: 20:00 | Nuvoloso | 25 | 18 | 65 | 1015 | 10 | N/NO 18.5 | |



